sensor_id;sensor_type;location;lat;lon;timestamp;P1;durP1;ratioP1;P2;durP2;ratioP2
38653;SDS011;24413;52.450;20.706;2023-04-15T00:01:25;13.95;;;10.07;;
38653;SDS011;24413;52.450;20.706;2023-04-15T00:03:51;13.00;;;9.73;;
38653;SDS011;24413;52.450;20.706;2023-04-15T00:06:18;11.55;;;9.00;;
38653;SDS011;24413;52.450;20.706;2023-04-15T00:08:44;11.68;;;9.40;;
38653;SDS011;24413;52.450;20.706;2023-04-15T00:11:10;13.35;;;9.50;;
38653;SDS011;24413;52.450;20.706;2023-04-15T00:13:36;11.65;;;9.32;;
38653;SDS011;24413;52.450;20.706;2023-04-15T00:16:02;11.15;;;8.38;;
38653;SDS011;24413;52.450;20.706;2023-04-15T00:18:28;11.48;;;9.38;;
38653;SDS011;24413;52.450;20.706;2023-04-15T00:20:53;13.43;;;8.23;;
38653;SDS011;24413;52.450;20.706;2023-04-15T00:23:19;10.77;;;8.65;;
38653;SDS011;24413;52.450;20.706;2023-04-15T00:25:44;12.10;;;8.35;;
38653;SDS011;24413;52.450;20.706;2023-04-15T00:28:10;11.27;;;8.98;;
38653;SDS011;24413;52.450;20.706;2023-04-15T00:30:36;11.30;;;8.68;;
38653;SDS011;24413;52.450;20.706;2023-04-15T00:33:02;13.18;;;9.18;;
38653;SDS011;24413;52.450;20.706;2023-04-15T00:35:27;12.02;;;8.30;;
38653;SDS011;24413;52.450;20.706;2023-04-15T00:37:53;16.17;;;8.52;;
38653;SDS011;24413;52.450;20.706;2023-04-15T00:40:20;12.32;;;9.25;;
38653;SDS011;24413;52.450;20.706;2023-04-15T00:42:48;11.55;;;8.40;;
38653;SDS011;24413;52.450;20.706;2023-04-15T00:45:13;10.38;;;8.35;;
38653;SDS011;24413;52.450;20.706;2023-04-15T00:47:43;13.20;;;9.32;;
38653;SDS011;24413;52.450;20.706;2023-04-15T00:50:09;12.90;;;8.93;;
38653;SDS011;24413;52.450;20.706;2023-04-15T00:52:35;12.82;;;7.68;;
38653;SDS011;24413;52.450;20.706;2023-04-15T00:55:01;12.60;;;8.32;;
38653;SDS011;24413;52.450;20.706;2023-04-15T00:57:28;9.85;;;8.15;;
38653;SDS011;24413;52.450;20.706;2023-04-15T00:59:54;9.95;;;8.55;;
38653;SDS011;24413;52.450;20.706;2023-04-15T01:02:21;9.95;;;8.77;;
38653;SDS011;24413;52.450;20.706;2023-04-15T01:04:47;10.02;;;8.20;;
38653;SDS011;24413;52.450;20.706;2023-04-15T01:07:12;16.85;;;8.55;;
38653;SDS011;24413;52.450;20.706;2023-04-15T01:09:38;11.98;;;8.73;;
38653;SDS011;24413;52.450;20.706;2023-04-15T01:12:03;12.38;;;9.02;;
38653;SDS011;24413;52.450;20.706;2023-04-15T01:14:29;13.23;;;8.90;;
38653;SDS011;24413;52.450;20.706;2023-04-15T01:16:55;13.25;;;9.20;;
38653;SDS011;24413;52.450;20.706;2023-04-15T01:19:21;11.65;;;8.73;;
38653;SDS011;24413;52.450;20.706;2023-04-15T01:21:47;14.18;;;9.30;;
38653;SDS011;24413;52.450;20.706;2023-04-15T01:24:12;10.52;;;9.32;;
38653;SDS011;24413;52.450;20.706;2023-04-15T01:26:40;12.68;;;9.57;;
38653;SDS011;24413;52.450;20.706;2023-04-15T01:29:05;11.00;;;9.77;;
38653;SDS011;24413;52.450;20.706;2023-04-15T01:31:31;12.40;;;8.85;;
38653;SDS011;24413;52.450;20.706;2023-04-15T01:33:57;10.45;;;8.88;;
38653;SDS011;24413;52.450;20.706;2023-04-15T01:36:23;12.15;;;9.10;;
38653;SDS011;24413;52.450;20.706;2023-04-15T01:38:48;11.35;;;8.68;;
38653;SDS011;24413;52.450;20.706;2023-04-15T01:41:14;13.23;;;10.40;;
38653;SDS011;24413;52.450;20.706;2023-04-15T01:43:40;11.82;;;9.77;;
38653;SDS011;24413;52.450;20.706;2023-04-15T01:46:05;11.77;;;9.45;;
38653;SDS011;24413;52.450;20.706;2023-04-15T01:48:31;12.00;;;8.88;;
38653;SDS011;24413;52.450;20.706;2023-04-15T01:50:57;11.85;;;10.25;;
38653;SDS011;24413;52.450;20.706;2023-04-15T01:53:23;12.55;;;10.05;;
38653;SDS011;24413;52.450;20.706;2023-04-15T01:55:49;12.75;;;9.75;;
38653;SDS011;24413;52.450;20.706;2023-04-15T01:58:15;13.13;;;9.82;;
38653;SDS011;24413;52.450;20.706;2023-04-15T02:00:41;13.63;;;10.25;;
38653;SDS011;24413;52.450;20.706;2023-04-15T02:03:07;12.52;;;9.40;;
38653;SDS011;24413;52.450;20.706;2023-04-15T02:05:32;12.52;;;10.05;;
38653;SDS011;24413;52.450;20.706;2023-04-15T02:07:57;14.45;;;10.02;;
38653;SDS011;24413;52.450;20.706;2023-04-15T02:10:23;12.60;;;10.38;;
38653;SDS011;24413;52.450;20.706;2023-04-15T02:12:48;13.30;;;10.13;;
38653;SDS011;24413;52.450;20.706;2023-04-15T02:15:14;13.35;;;10.48;;
38653;SDS011;24413;52.450;20.706;2023-04-15T02:17:39;12.63;;;10.77;;
38653;SDS011;24413;52.450;20.706;2023-04-15T02:20:05;13.88;;;11.50;;
38653;SDS011;24413;52.450;20.706;2023-04-15T02:22:32;12.70;;;11.02;;
38653;SDS011;24413;52.450;20.706;2023-04-15T02:24:58;14.23;;;11.13;;
38653;SDS011;24413;52.450;20.706;2023-04-15T02:27:23;12.93;;;11.35;;
38653;SDS011;24413;52.450;20.706;2023-04-15T02:29:49;13.80;;;11.20;;
38653;SDS011;24413;52.450;20.706;2023-04-15T02:32:15;18.35;;;11.32;;
38653;SDS011;24413;52.450;20.706;2023-04-15T02:34:41;15.90;;;13.07;;
38653;SDS011;24413;52.450;20.706;2023-04-15T02:37:10;14.32;;;11.55;;
38653;SDS011;24413;52.450;20.706;2023-04-15T02:39:36;15.27;;;12.25;;
38653;SDS011;24413;52.450;20.706;2023-04-15T02:42:02;20.33;;;12.73;;
38653;SDS011;24413;52.450;20.706;2023-04-15T02:44:28;20.05;;;12.68;;
38653;SDS011;24413;52.450;20.706;2023-04-15T02:46:55;15.65;;;12.07;;
38653;SDS011;24413;52.450;20.706;2023-04-15T02:49:20;19.10;;;13.80;;
38653;SDS011;24413;52.450;20.706;2023-04-15T02:51:47;16.20;;;12.45;;
38653;SDS011;24413;52.450;20.706;2023-04-15T02:54:14;17.33;;;12.27;;
38653;SDS011;24413;52.450;20.706;2023-04-15T02:56:40;16.05;;;12.90;;
38653;SDS011;24413;52.450;20.706;2023-04-15T02:59:06;23.15;;;13.35;;
38653;SDS011;24413;52.450;20.706;2023-04-15T03:01:31;19.00;;;13.65;;
38653;SDS011;24413;52.450;20.706;2023-04-15T03:03:57;17.25;;;13.35;;
38653;SDS011;24413;52.450;20.706;2023-04-15T03:06:22;21.27;;;13.88;;
38653;SDS011;24413;52.450;20.706;2023-04-15T03:08:48;15.98;;;14.25;;
38653;SDS011;24413;52.450;20.706;2023-04-15T03:11:14;16.30;;;13.43;;
38653;SDS011;24413;52.450;20.706;2023-04-15T03:13:41;16.17;;;13.27;;
38653;SDS011;24413;52.450;20.706;2023-04-15T03:16:07;22.80;;;14.98;;
38653;SDS011;24413;52.450;20.706;2023-04-15T03:18:33;17.58;;;13.65;;
38653;SDS011;24413;52.450;20.706;2023-04-15T03:20:58;17.80;;;13.82;;
38653;SDS011;24413;52.450;20.706;2023-04-15T03:23:24;18.10;;;13.73;;
38653;SDS011;24413;52.450;20.706;2023-04-15T03:25:49;17.92;;;14.85;;
38653;SDS011;24413;52.450;20.706;2023-04-15T03:28:15;21.20;;;14.48;;
38653;SDS011;24413;52.450;20.706;2023-04-15T03:30:40;14.23;;;12.60;;
38653;SDS011;24413;52.450;20.706;2023-04-15T03:33:06;19.90;;;13.70;;
38653;SDS011;24413;52.450;20.706;2023-04-15T03:35:31;17.73;;;13.95;;
38653;SDS011;24413;52.450;20.706;2023-04-15T03:37:57;18.08;;;14.23;;
38653;SDS011;24413;52.450;20.706;2023-04-15T03:40:22;16.02;;;13.57;;
38653;SDS011;24413;52.450;20.706;2023-04-15T03:42:47;17.48;;;14.65;;
38653;SDS011;24413;52.450;20.706;2023-04-15T03:45:13;16.23;;;13.15;;
38653;SDS011;24413;52.450;20.706;2023-04-15T03:47:38;22.08;;;14.27;;
38653;SDS011;24413;52.450;20.706;2023-04-15T03:50:04;18.65;;;14.57;;
38653;SDS011;24413;52.450;20.706;2023-04-15T03:52:29;20.65;;;14.18;;
38653;SDS011;24413;52.450;20.706;2023-04-15T03:54:55;17.88;;;13.63;;
38653;SDS011;24413;52.450;20.706;2023-04-15T03:57:20;18.05;;;14.57;;
38653;SDS011;24413;52.450;20.706;2023-04-15T03:59:46;25.02;;;14.45;;
38653;SDS011;24413;52.450;20.706;2023-04-15T04:02:11;16.30;;;12.45;;
38653;SDS011;24413;52.450;20.706;2023-04-15T04:04:37;17.77;;;14.00;;
38653;SDS011;24413;52.450;20.706;2023-04-15T04:07:02;17.50;;;13.50;;
38653;SDS011;24413;52.450;20.706;2023-04-15T04:09:27;19.73;;;13.35;;
38653;SDS011;24413;52.450;20.706;2023-04-15T04:11:53;16.02;;;12.63;;
38653;SDS011;24413;52.450;20.706;2023-04-15T04:14:18;15.77;;;12.43;;
38653;SDS011;24413;52.450;20.706;2023-04-15T04:16:44;16.75;;;12.48;;
38653;SDS011;24413;52.450;20.706;2023-04-15T04:19:09;15.15;;;12.60;;
38653;SDS011;24413;52.450;20.706;2023-04-15T04:21:35;15.85;;;13.63;;
38653;SDS011;24413;52.450;20.706;2023-04-15T04:24:00;16.92;;;13.45;;
38653;SDS011;24413;52.450;20.706;2023-04-15T04:26:26;18.55;;;13.25;;
38653;SDS011;24413;52.450;20.706;2023-04-15T04:28:51;14.25;;;12.45;;
38653;SDS011;24413;52.450;20.706;2023-04-15T04:31:17;13.70;;;12.27;;
38653;SDS011;24413;52.450;20.706;2023-04-15T04:33:43;15.55;;;13.20;;
38653;SDS011;24413;52.450;20.706;2023-04-15T04:36:08;16.90;;;13.07;;
38653;SDS011;24413;52.450;20.706;2023-04-15T04:38:33;18.17;;;12.77;;
38653;SDS011;24413;52.450;20.706;2023-04-15T04:40:59;20.13;;;12.50;;
38653;SDS011;24413;52.450;20.706;2023-04-15T04:43:24;19.45;;;13.95;;
38653;SDS011;24413;52.450;20.706;2023-04-15T04:45:51;16.15;;;12.38;;
38653;SDS011;24413;52.450;20.706;2023-04-15T04:48:16;17.80;;;12.85;;
38653;SDS011;24413;52.450;20.706;2023-04-15T04:50:42;17.88;;;12.45;;
38653;SDS011;24413;52.450;20.706;2023-04-15T04:53:08;17.60;;;13.23;;
38653;SDS011;24413;52.450;20.706;2023-04-15T04:55:34;18.38;;;12.48;;
38653;SDS011;24413;52.450;20.706;2023-04-15T04:58:01;15.18;;;12.23;;
38653;SDS011;24413;52.450;20.706;2023-04-15T05:00:26;16.58;;;11.57;;
38653;SDS011;24413;52.450;20.706;2023-04-15T05:02:53;17.10;;;12.02;;
38653;SDS011;24413;52.450;20.706;2023-04-15T05:05:18;15.18;;;11.65;;
38653;SDS011;24413;52.450;20.706;2023-04-15T05:07:43;14.82;;;11.82;;
38653;SDS011;24413;52.450;20.706;2023-04-15T05:10:09;14.65;;;11.32;;
38653;SDS011;24413;52.450;20.706;2023-04-15T05:12:35;17.73;;;11.38;;
38653;SDS011;24413;52.450;20.706;2023-04-15T05:15:01;13.27;;;10.57;;
38653;SDS011;24413;52.450;20.706;2023-04-15T05:17:26;18.40;;;10.77;;
38653;SDS011;24413;52.450;20.706;2023-04-15T05:19:52;16.08;;;12.55;;
38653;SDS011;24413;52.450;20.706;2023-04-15T05:22:17;14.23;;;11.73;;
38653;SDS011;24413;52.450;20.706;2023-04-15T05:24:43;19.83;;;12.43;;
38653;SDS011;24413;52.450;20.706;2023-04-15T05:27:08;14.18;;;11.60;;
38653;SDS011;24413;52.450;20.706;2023-04-15T05:29:35;15.48;;;12.65;;
38653;SDS011;24413;52.450;20.706;2023-04-15T05:32:00;19.67;;;12.80;;
38653;SDS011;24413;52.450;20.706;2023-04-15T05:34:26;19.33;;;13.23;;
38653;SDS011;24413;52.450;20.706;2023-04-15T05:36:51;17.25;;;12.60;;
38653;SDS011;24413;52.450;20.706;2023-04-15T05:39:17;17.77;;;13.55;;
38653;SDS011;24413;52.450;20.706;2023-04-15T05:41:42;19.63;;;13.68;;
38653;SDS011;24413;52.450;20.706;2023-04-15T05:44:08;15.63;;;13.18;;
38653;SDS011;24413;52.450;20.706;2023-04-15T05:46:33;15.55;;;13.15;;
38653;SDS011;24413;52.450;20.706;2023-04-15T05:48:59;18.13;;;13.30;;
38653;SDS011;24413;52.450;20.706;2023-04-15T05:51:24;17.38;;;12.85;;
38653;SDS011;24413;52.450;20.706;2023-04-15T05:53:50;18.08;;;12.80;;
38653;SDS011;24413;52.450;20.706;2023-04-15T05:56:15;15.70;;;12.73;;
38653;SDS011;24413;52.450;20.706;2023-04-15T05:58:41;23.40;;;13.30;;
38653;SDS011;24413;52.450;20.706;2023-04-15T06:01:07;16.90;;;14.40;;
38653;SDS011;24413;52.450;20.706;2023-04-15T06:03:32;18.40;;;12.82;;
38653;SDS011;24413;52.450;20.706;2023-04-15T06:05:58;20.35;;;13.48;;
38653;SDS011;24413;52.450;20.706;2023-04-15T06:08:24;16.38;;;13.27;;
38653;SDS011;24413;52.450;20.706;2023-04-15T06:10:50;16.10;;;13.80;;
38653;SDS011;24413;52.450;20.706;2023-04-15T06:13:15;14.73;;;12.93;;
38653;SDS011;24413;52.450;20.706;2023-04-15T06:15:41;17.50;;;12.98;;
38653;SDS011;24413;52.450;20.706;2023-04-15T06:18:07;17.48;;;13.18;;
38653;SDS011;24413;52.450;20.706;2023-04-15T06:20:32;21.10;;;14.13;;
38653;SDS011;24413;52.450;20.706;2023-04-15T06:22:57;17.50;;;13.65;;
38653;SDS011;24413;52.450;20.706;2023-04-15T06:25:23;20.15;;;14.55;;
38653;SDS011;24413;52.450;20.706;2023-04-15T06:27:48;19.13;;;13.77;;
38653;SDS011;24413;52.450;20.706;2023-04-15T06:30:14;19.58;;;13.27;;
38653;SDS011;24413;52.450;20.706;2023-04-15T06:32:40;15.85;;;13.05;;
38653;SDS011;24413;52.450;20.706;2023-04-15T06:35:05;17.70;;;13.45;;
38653;SDS011;24413;52.450;20.706;2023-04-15T06:37:31;19.17;;;12.75;;
38653;SDS011;24413;52.450;20.706;2023-04-15T06:39:56;19.08;;;12.85;;
38653;SDS011;24413;52.450;20.706;2023-04-15T06:42:22;24.80;;;12.25;;
38653;SDS011;24413;52.450;20.706;2023-04-15T06:44:47;19.77;;;12.60;;
38653;SDS011;24413;52.450;20.706;2023-04-15T06:47:13;16.92;;;13.50;;
38653;SDS011;24413;52.450;20.706;2023-04-15T06:49:39;14.15;;;12.00;;
38653;SDS011;24413;52.450;20.706;2023-04-15T06:52:05;15.18;;;13.07;;
38653;SDS011;24413;52.450;20.706;2023-04-15T06:54:30;15.68;;;12.38;;
38653;SDS011;24413;52.450;20.706;2023-04-15T06:56:56;15.52;;;12.43;;
38653;SDS011;24413;52.450;20.706;2023-04-15T06:59:21;15.75;;;12.40;;
38653;SDS011;24413;52.450;20.706;2023-04-15T07:01:46;15.23;;;12.93;;
38653;SDS011;24413;52.450;20.706;2023-04-15T07:04:12;14.55;;;12.50;;
38653;SDS011;24413;52.450;20.706;2023-04-15T07:06:37;16.40;;;12.57;;
38653;SDS011;24413;52.450;20.706;2023-04-15T07:09:03;17.75;;;13.07;;
38653;SDS011;24413;52.450;20.706;2023-04-15T07:11:29;17.02;;;13.13;;
38653;SDS011;24413;52.450;20.706;2023-04-15T07:13:54;19.10;;;13.63;;
38653;SDS011;24413;52.450;20.706;2023-04-15T07:16:21;19.58;;;13.32;;
38653;SDS011;24413;52.450;20.706;2023-04-15T07:18:47;16.75;;;12.60;;
38653;SDS011;24413;52.450;20.706;2023-04-15T07:21:12;19.23;;;14.15;;
38653;SDS011;24413;52.450;20.706;2023-04-15T07:23:37;17.73;;;14.07;;
38653;SDS011;24413;52.450;20.706;2023-04-15T07:26:03;14.13;;;12.38;;
38653;SDS011;24413;52.450;20.706;2023-04-15T07:28:28;16.80;;;13.23;;
38653;SDS011;24413;52.450;20.706;2023-04-15T07:30:54;15.10;;;12.98;;
38653;SDS011;24413;52.450;20.706;2023-04-15T07:33:21;18.58;;;13.70;;
38653;SDS011;24413;52.450;20.706;2023-04-15T07:35:47;17.45;;;13.20;;
38653;SDS011;24413;52.450;20.706;2023-04-15T07:38:13;17.65;;;12.60;;
38653;SDS011;24413;52.450;20.706;2023-04-15T07:40:38;15.45;;;11.98;;
38653;SDS011;24413;52.450;20.706;2023-04-15T07:43:04;16.98;;;13.30;;
38653;SDS011;24413;52.450;20.706;2023-04-15T07:45:30;13.65;;;11.63;;
38653;SDS011;24413;52.450;20.706;2023-04-15T07:47:56;14.02;;;12.13;;
38653;SDS011;24413;52.450;20.706;2023-04-15T07:50:21;14.02;;;11.13;;
38653;SDS011;24413;52.450;20.706;2023-04-15T07:52:47;16.45;;;11.70;;
38653;SDS011;24413;52.450;20.706;2023-04-15T07:55:18;13.75;;;11.60;;
38653;SDS011;24413;52.450;20.706;2023-04-15T07:57:45;13.85;;;11.75;;
38653;SDS011;24413;52.450;20.706;2023-04-15T08:00:11;18.27;;;13.43;;
38653;SDS011;24413;52.450;20.706;2023-04-15T08:02:37;13.80;;;11.38;;
38653;SDS011;24413;52.450;20.706;2023-04-15T08:05:02;12.82;;;9.65;;
38653;SDS011;24413;52.450;20.706;2023-04-15T08:07:28;15.25;;;10.15;;
38653;SDS011;24413;52.450;20.706;2023-04-15T08:09:54;13.85;;;10.25;;
38653;SDS011;24413;52.450;20.706;2023-04-15T08:12:20;12.80;;;10.20;;
38653;SDS011;24413;52.450;20.706;2023-04-15T08:14:45;13.27;;;10.85;;
38653;SDS011;24413;52.450;20.706;2023-04-15T08:17:11;12.27;;;9.65;;
38653;SDS011;24413;52.450;20.706;2023-04-15T08:19:36;13.18;;;9.90;;
38653;SDS011;24413;52.450;20.706;2023-04-15T08:22:02;10.73;;;8.90;;
38653;SDS011;24413;52.450;20.706;2023-04-15T08:24:27;9.55;;;8.13;;
38653;SDS011;24413;52.450;20.706;2023-04-15T08:26:53;11.55;;;8.35;;
38653;SDS011;24413;52.450;20.706;2023-04-15T08:29:18;9.68;;;7.95;;
38653;SDS011;24413;52.450;20.706;2023-04-15T08:31:44;10.90;;;8.20;;
38653;SDS011;24413;52.450;20.706;2023-04-15T08:34:11;9.27;;;7.45;;
38653;SDS011;24413;52.450;20.706;2023-04-15T08:36:37;10.95;;;8.43;;
38653;SDS011;24413;52.450;20.706;2023-04-15T08:39:02;10.05;;;7.72;;
38653;SDS011;24413;52.450;20.706;2023-04-15T08:41:30;12.10;;;9.55;;
38653;SDS011;24413;52.450;20.706;2023-04-15T08:44:02;11.95;;;8.02;;
38653;SDS011;24413;52.450;20.706;2023-04-15T08:46:32;11.30;;;7.68;;
38653;SDS011;24413;52.450;20.706;2023-04-15T08:48:58;12.63;;;9.73;;
38653;SDS011;24413;52.450;20.706;2023-04-15T08:51:24;12.38;;;9.40;;
38653;SDS011;24413;52.450;20.706;2023-04-15T08:53:52;11.20;;;8.00;;
38653;SDS011;24413;52.450;20.706;2023-04-15T08:56:18;11.15;;;9.35;;
38653;SDS011;24413;52.450;20.706;2023-04-15T08:58:44;14.07;;;9.75;;
38653;SDS011;24413;52.450;20.706;2023-04-15T09:01:10;18.23;;;12.43;;
38653;SDS011;24413;52.450;20.706;2023-04-15T09:03:37;13.20;;;10.50;;
38653;SDS011;24413;52.450;20.706;2023-04-15T09:06:03;13.07;;;9.30;;
38653;SDS011;24413;52.450;20.706;2023-04-15T09:08:30;14.45;;;10.63;;
38653;SDS011;24413;52.450;20.706;2023-04-15T09:10:55;20.52;;;15.23;;
38653;SDS011;24413;52.450;20.706;2023-04-15T09:13:21;71.18;;;36.80;;
38653;SDS011;24413;52.450;20.706;2023-04-15T09:15:47;26.95;;;14.98;;
38653;SDS011;24413;52.450;20.706;2023-04-15T09:18:13;167.10;;;69.03;;
38653;SDS011;24413;52.450;20.706;2023-04-15T09:20:38;54.33;;;25.48;;
38653;SDS011;24413;52.450;20.706;2023-04-15T09:23:12;92.70;;;40.33;;
38653;SDS011;24413;52.450;20.706;2023-04-15T09:25:39;105.90;;;48.25;;
38653;SDS011;24413;52.450;20.706;2023-04-15T09:28:08;189.18;;;85.68;;
38653;SDS011;24413;52.450;20.706;2023-04-15T09:30:34;155.82;;;73.40;;
38653;SDS011;24413;52.450;20.706;2023-04-15T09:33:01;61.22;;;31.77;;
38653;SDS011;24413;52.450;20.706;2023-04-15T09:35:28;62.50;;;33.58;;
38653;SDS011;24413;52.450;20.706;2023-04-15T09:38:01;54.47;;;30.13;;
38653;SDS011;24413;52.450;20.706;2023-04-15T09:40:32;54.72;;;32.92;;
38653;SDS011;24413;52.450;20.706;2023-04-15T09:43:07;16.77;;;12.50;;
38653;SDS011;24413;52.450;20.706;2023-04-15T09:45:34;9.98;;;8.88;;
38653;SDS011;24413;52.450;20.706;2023-04-15T09:48:17;12.00;;;8.25;;
38653;SDS011;24413;52.450;20.706;2023-04-15T09:50:45;8.32;;;7.03;;
38653;SDS011;24413;52.450;20.706;2023-04-15T09:53:19;10.40;;;8.15;;
38653;SDS011;24413;52.450;20.706;2023-04-15T09:55:48;9.63;;;7.32;;
38653;SDS011;24413;52.450;20.706;2023-04-15T09:58:23;6.43;;;5.80;;
38653;SDS011;24413;52.450;20.706;2023-04-15T10:00:59;9.35;;;6.57;;
38653;SDS011;24413;52.450;20.706;2023-04-15T10:03:27;8.65;;;6.28;;
38653;SDS011;24413;52.450;20.706;2023-04-15T10:05:54;7.03;;;6.35;;
38653;SDS011;24413;52.450;20.706;2023-04-15T10:08:22;5.97;;;5.18;;
38653;SDS011;24413;52.450;20.706;2023-04-15T10:10:49;5.72;;;5.18;;
38653;SDS011;24413;52.450;20.706;2023-04-15T10:13:18;5.57;;;4.93;;
38653;SDS011;24413;52.450;20.706;2023-04-15T10:15:56;5.43;;;4.90;;
38653;SDS011;24413;52.450;20.706;2023-04-15T10:18:22;6.15;;;5.55;;
38653;SDS011;24413;52.450;20.706;2023-04-15T10:20:50;6.25;;;5.25;;
38653;SDS011;24413;52.450;20.706;2023-04-15T10:23:16;5.35;;;4.85;;
38653;SDS011;24413;52.450;20.706;2023-04-15T10:25:43;9.38;;;5.15;;
38653;SDS011;24413;52.450;20.706;2023-04-15T10:28:19;6.22;;;5.22;;
38653;SDS011;24413;52.450;20.706;2023-04-15T10:30:47;5.47;;;4.93;;
38653;SDS011;24413;52.450;20.706;2023-04-15T10:33:14;6.85;;;5.85;;
38653;SDS011;24413;52.450;20.706;2023-04-15T10:35:41;12.95;;;5.45;;
38653;SDS011;24413;52.450;20.706;2023-04-15T10:41:15;30.88;;;16.70;;
38653;SDS011;24413;52.450;20.706;2023-04-15T10:46:20;10.02;;;8.60;;
38653;SDS011;24413;52.450;20.706;2023-04-15T10:48:47;5.25;;;4.75;;
38653;SDS011;24413;52.450;20.706;2023-04-15T10:51:25;8.15;;;5.88;;
38653;SDS011;24413;52.450;20.706;2023-04-15T10:53:57;5.68;;;4.80;;
38653;SDS011;24413;52.450;20.706;2023-04-15T10:56:23;5.30;;;4.90;;
38653;SDS011;24413;52.450;20.706;2023-04-15T10:58:49;4.88;;;4.38;;
38653;SDS011;24413;52.450;20.706;2023-04-15T11:01:15;6.55;;;4.93;;
38653;SDS011;24413;52.450;20.706;2023-04-15T11:03:41;7.70;;;5.38;;
38653;SDS011;24413;52.450;20.706;2023-04-15T11:06:07;8.63;;;5.78;;
38653;SDS011;24413;52.450;20.706;2023-04-15T11:08:51;8.40;;;4.28;;
38653;SDS011;24413;52.450;20.706;2023-04-15T11:11:18;7.78;;;5.85;;
38653;SDS011;24413;52.450;20.706;2023-04-15T11:13:50;5.75;;;5.03;;
38653;SDS011;24413;52.450;20.706;2023-04-15T11:16:19;5.75;;;4.72;;
38653;SDS011;24413;52.450;20.706;2023-04-15T11:18:54;5.70;;;4.95;;
38653;SDS011;24413;52.450;20.706;2023-04-15T11:21:20;6.35;;;5.18;;
38653;SDS011;24413;52.450;20.706;2023-04-15T11:23:49;5.57;;;4.85;;
38653;SDS011;24413;52.450;20.706;2023-04-15T11:26:15;6.85;;;5.93;;
38653;SDS011;24413;52.450;20.706;2023-04-15T11:28:41;6.18;;;5.57;;
38653;SDS011;24413;52.450;20.706;2023-04-15T11:31:09;6.38;;;5.75;;
38653;SDS011;24413;52.450;20.706;2023-04-15T11:33:35;9.15;;;5.20;;
38653;SDS011;24413;52.450;20.706;2023-04-15T11:36:01;8.15;;;5.30;;
38653;SDS011;24413;52.450;20.706;2023-04-15T11:38:28;7.20;;;5.28;;
38653;SDS011;24413;52.450;20.706;2023-04-15T11:40:53;8.18;;;5.50;;
38653;SDS011;24413;52.450;20.706;2023-04-15T11:43:20;8.68;;;4.78;;
38653;SDS011;24413;52.450;20.706;2023-04-15T11:45:48;10.15;;;7.50;;
38653;SDS011;24413;52.450;20.706;2023-04-15T11:48:13;12.30;;;7.85;;
38653;SDS011;24413;52.450;20.706;2023-04-15T11:50:39;10.85;;;7.50;;
38653;SDS011;24413;52.450;20.706;2023-04-15T11:53:06;6.78;;;5.53;;
38653;SDS011;24413;52.450;20.706;2023-04-15T12:00:39;8.43;;;4.85;;
38653;SDS011;24413;52.450;20.706;2023-04-15T12:11:12;5.82;;;5.03;;
38653;SDS011;24413;52.450;20.706;2023-04-15T12:13:38;7.72;;;5.07;;
38653;SDS011;24413;52.450;20.706;2023-04-15T12:16:11;5.68;;;4.95;;
38653;SDS011;24413;52.450;20.706;2023-04-15T12:18:37;9.75;;;5.43;;
38653;SDS011;24413;52.450;20.706;2023-04-15T12:21:09;10.05;;;5.68;;
38653;SDS011;24413;52.450;20.706;2023-04-15T12:23:39;6.55;;;4.93;;
38653;SDS011;24413;52.450;20.706;2023-04-15T12:26:11;8.80;;;5.97;;
38653;SDS011;24413;52.450;20.706;2023-04-15T12:28:39;16.75;;;12.90;;
38653;SDS011;24413;52.450;20.706;2023-04-15T12:31:06;19.30;;;13.52;;
38653;SDS011;24413;52.450;20.706;2023-04-15T12:33:33;13.90;;;10.98;;
38653;SDS011;24413;52.450;20.706;2023-04-15T12:35:58;6.30;;;5.63;;
38653;SDS011;24413;52.450;20.706;2023-04-15T12:38:24;10.02;;;6.82;;
38653;SDS011;24413;52.450;20.706;2023-04-15T12:40:49;12.57;;;8.95;;
38653;SDS011;24413;52.450;20.706;2023-04-15T12:43:22;6.90;;;6.20;;
38653;SDS011;24413;52.450;20.706;2023-04-15T12:45:48;10.15;;;7.82;;
38653;SDS011;24413;52.450;20.706;2023-04-15T12:48:13;14.45;;;10.18;;
38653;SDS011;24413;52.450;20.706;2023-04-15T12:50:38;7.80;;;6.10;;
38653;SDS011;24413;52.450;20.706;2023-04-15T12:53:05;7.28;;;6.57;;
38653;SDS011;24413;52.450;20.706;2023-04-15T12:55:31;9.63;;;7.13;;
38653;SDS011;24413;52.450;20.706;2023-04-15T12:57:56;8.43;;;5.55;;
38653;SDS011;24413;52.450;20.706;2023-04-15T13:00:22;7.03;;;6.30;;
38653;SDS011;24413;52.450;20.706;2023-04-15T13:02:47;5.70;;;5.10;;
38653;SDS011;24413;52.450;20.706;2023-04-15T13:05:13;6.63;;;5.18;;
38653;SDS011;24413;52.450;20.706;2023-04-15T13:07:39;5.88;;;4.45;;
38653;SDS011;24413;52.450;20.706;2023-04-15T13:10:05;4.75;;;3.72;;
38653;SDS011;24413;52.450;20.706;2023-04-15T13:12:31;4.15;;;3.60;;
38653;SDS011;24413;52.450;20.706;2023-04-15T13:15:00;6.05;;;3.83;;
38653;SDS011;24413;52.450;20.706;2023-04-15T13:17:26;4.45;;;3.70;;
38653;SDS011;24413;52.450;20.706;2023-04-15T13:19:51;3.70;;;3.40;;
38653;SDS011;24413;52.450;20.706;2023-04-15T13:22:16;3.85;;;3.15;;
38653;SDS011;24413;52.450;20.706;2023-04-15T13:24:42;5.63;;;2.90;;
38653;SDS011;24413;52.450;20.706;2023-04-15T13:27:08;4.65;;;3.15;;
38653;SDS011;24413;52.450;20.706;2023-04-15T13:29:33;4.10;;;3.80;;
38653;SDS011;24413;52.450;20.706;2023-04-15T13:31:58;3.33;;;3.00;;
38653;SDS011;24413;52.450;20.706;2023-04-15T13:34:25;7.53;;;4.50;;
38653;SDS011;24413;52.450;20.706;2023-04-15T13:36:50;5.70;;;3.88;;
38653;SDS011;24413;52.450;20.706;2023-04-15T13:39:16;6.28;;;5.18;;
38653;SDS011;24413;52.450;20.706;2023-04-15T13:41:41;4.85;;;3.78;;
38653;SDS011;24413;52.450;20.706;2023-04-15T13:44:07;5.78;;;4.10;;
38653;SDS011;24413;52.450;20.706;2023-04-15T13:46:32;5.22;;;4.47;;
38653;SDS011;24413;52.450;20.706;2023-04-15T13:48:57;5.65;;;5.03;;
38653;SDS011;24413;52.450;20.706;2023-04-15T13:51:23;6.97;;;4.57;;
38653;SDS011;24413;52.450;20.706;2023-04-15T13:53:48;5.45;;;4.40;;
38653;SDS011;24413;52.450;20.706;2023-04-15T13:56:14;7.22;;;4.05;;
38653;SDS011;24413;52.450;20.706;2023-04-15T13:58:39;6.05;;;4.03;;
38653;SDS011;24413;52.450;20.706;2023-04-15T14:01:05;5.13;;;2.83;;
38653;SDS011;24413;52.450;20.706;2023-04-15T14:03:31;4.32;;;2.70;;
38653;SDS011;24413;52.450;20.706;2023-04-15T14:05:56;30.73;;;19.30;;
38653;SDS011;24413;52.450;20.706;2023-04-15T14:08:23;20.67;;;12.27;;
38653;SDS011;24413;52.450;20.706;2023-04-15T14:10:49;4.97;;;3.42;;
38653;SDS011;24413;52.450;20.706;2023-04-15T14:13:14;5.43;;;3.75;;
38653;SDS011;24413;52.450;20.706;2023-04-15T14:15:40;5.07;;;4.20;;
38653;SDS011;24413;52.450;20.706;2023-04-15T14:18:06;6.47;;;3.85;;
38653;SDS011;24413;52.450;20.706;2023-04-15T14:20:31;15.38;;;7.25;;
38653;SDS011;24413;52.450;20.706;2023-04-15T14:22:57;32.85;;;21.15;;
38653;SDS011;24413;52.450;20.706;2023-04-15T14:25:22;46.03;;;27.45;;
38653;SDS011;24413;52.450;20.706;2023-04-15T14:27:48;31.40;;;18.27;;
38653;SDS011;24413;52.450;20.706;2023-04-15T14:30:14;9.52;;;7.78;;
38653;SDS011;24413;52.450;20.706;2023-04-15T14:32:39;6.00;;;3.60;;